Time;durP1;ratioP1;P1;durP2;ratioP2;P2;SDS_P1;SDS_P2;PMS_P1;PMS_P2;Temp;Humidity;BMP_temperature;BMP_pressure;BME280_temperature;BME280_humidity;BME280_pressure;Samples;Min_cycle;Max_cycle;Signal;HPM_P1;HPM_P2
2021/03/27 00:00:00;;;;;;;27.77;16.35;;;205.60;1356.80;;;;;;4948856;28;20039;-89
2021/03/27 00:02:35;;;;;;;27.27;15.25;;;205.60;1356.80;;;;;;4951487;28;20082;-90
2021/03/27 00:05:08;;;;;;;28.75;16.42;;;205.70;1356.80;;;;;;4952085;29;20460;-89
2021/03/27 00:07:52;;;;;;;26.77;16.55;;;230.50;1356.80;;;;;;4952414;28;20046;-90
2021/03/27 00:10:26;;;;;;;;;;;205.60;1356.80;;;;;;4923094;29;20047;-88
2021/03/27 00:13:09;;;;;;;30.13;16.58;;;205.60;1382.40;;;;;;4951339;29;20451;-82
2021/03/27 00:15:39;;;;;;;28.40;16.75;;;205.60;1356.80;;;;;;4944153;29;20043;-83
2021/03/27 00:18:17;;;;;;;28.83;17.20;;;205.60;1382.40;;;;;;4948113;29;20152;-87
2021/03/27 00:20:58;;;;;;;27.92;18.17;;;205.50;1356.80;;;;;;4946362;28;20048;-89
2021/03/27 00:23:31;;;;;;;28.52;17.30;;;205.60;1382.40;;;;;;4920137;29;20082;-87
2021/03/27 00:26:11;;;;;;;28.73;17.63;;;205.60;1382.40;;;;;;4946134;28;20032;-86
2021/03/27 00:28:44;;;;;;;29.02;16.50;;;205.60;1356.80;;;;;;4952435;29;20023;-90
2021/03/27 00:31:34;;;;;;;28.45;17.48;;;205.50;1382.40;;;;;;4988584;28;20038;-89
2021/03/27 00:34:06;;;;;;;26.90;17.33;;;205.50;1382.40;;;;;;5027083;28;20064;-87
2021/03/27 00:36:54;;;;;;;26.70;17.92;;;205.70;1459.20;;;;;;5056638;28;20403;-87
2021/03/27 00:39:29;;;;;;;31.27;17.70;;;205.50;1382.40;;;;;;5037289;28;20086;-79
2021/03/27 00:42:00;;;;;;;29.83;17.73;;;205.40;1382.40;;;;;;5039780;28;20024;-89
2021/03/27 00:44:33;;;;;;;26.15;17.40;;;205.50;1382.40;;;;;;5036294;28;20033;-89
2021/03/27 00:47:00;;;;;;;27.92;17.63;;;205.40;1382.40;;;;;;5048629;28;20029;-89
2021/03/27 00:49:32;;;;;;;26.58;17.08;;;205.40;1382.40;;;;;;5054597;28;20032;-75
2021/03/27 00:52:05;;;;;;;28.25;17.92;;;205.30;1382.40;;;;;;5051779;28;20021;-87
2021/03/27 00:54:56;;;;;;;29.63;18.58;;;205.20;1382.40;;;;;;5058259;28;20112;-88
2021/03/27 00:57:32;;;;;;;29.08;17.42;;;205.20;1408.00;;;;;;5040576;28;20036;-86
2021/03/27 01:00:38;;;;;;;27.25;17.92;;;205.10;1408.00;;;;;;5056362;28;20025;-89
2021/03/27 01:03:20;;;;;;;28.35;17.92;;;205.40;1408.00;;;;;;5035000;28;20060;-88
2021/03/27 01:05:49;;;;;;;27.83;17.48;;;205.10;1433.60;;;;;;5041586;28;20032;-88
2021/03/27 01:08:18;;;;;;;29.40;18.17;;;205.00;1433.60;;;;;;5054413;28;20052;-87
2021/03/27 01:11:02;;;;;;;28.38;17.85;;;205.40;2252.80;;;;;;5056965;28;20049;-89
2021/03/27 01:13:34;;;;;;;;;;;204.90;1433.60;;;;;;5050835;28;20021;-86
2021/03/27 01:16:03;;;;;;;28.13;17.42;;;204.90;1433.60;;;;;;5044258;28;20357;-87
2021/03/27 01:18:37;;;;;;;27.10;17.17;;;204.90;1433.60;;;;;;5054933;28;20505;-87
2021/03/27 01:21:11;;;;;;;28.95;17.40;;;204.90;1433.60;;;;;;5048929;28;20406;-90
2021/03/27 01:23:38;;;;;;;25.92;17.80;;;205.00;1433.60;;;;;;5033092;28;20039;-87
2021/03/27 01:26:24;;;;;;;30.23;18.05;;;205.00;1433.60;;;;;;5047125;28;20024;-88
2021/03/27 01:29:04;;;;;;;25.27;16.45;;;205.00;1433.60;;;;;;5055003;28;20162;-87
2021/03/27 01:31:51;;;;;;;26.60;17.25;;;205.10;1433.60;;;;;;5051299;28;20056;-84
2021/03/27 01:34:57;;;;;;;26.77;16.98;;;205.00;1433.60;;;;;;5056299;28;20017;-87
2021/03/27 01:37:43;;;;;;;23.55;15.48;;;205.00;1433.60;;;;;;5019579;28;20506;-86
2021/03/27 01:40:52;;;;;;;26.52;16.20;;;205.00;1433.60;;;;;;5051122;28;20044;-87
2021/03/27 01:43:21;;;;;;;28.45;17.30;;;205.00;1433.60;;;;;;4942450;29;20047;-75
2021/03/27 01:46:05;;;;;;;28.30;17.35;;;204.90;1459.20;;;;;;4959557;29;20489;-80
2021/03/27 01:48:48;;;;;;;27.27;17.17;;;204.90;1433.60;;;;;;4956037;28;20564;-89
2021/03/27 01:51:22;;;;;;;29.48;16.38;;;204.90;1433.60;;;;;;4954501;29;20035;-82
2021/03/27 01:54:07;;;;;;;31.02;17.50;;;204.90;1459.20;;;;;;4943972;28;20043;-76
2021/03/27 01:56:54;;;;;;;25.55;16.65;;;204.80;1459.20;;;;;;4939489;29;20038;-88
2021/03/27 01:59:52;;;;;;;27.75;16.38;;;204.80;1459.20;;;;;;4951368;28;20031;-85
2021/03/27 02:02:39;;;;;;;24.60;16.38;;;204.80;1459.20;;;;;;4948074;28;20114;-89
2021/03/27 02:05:11;;;;;;;27.75;16.80;;;;;;;;;;4943841;29;20494;-88
2021/03/27 02:07:56;;;;;;;26.23;15.20;;;;;;;;;;4952711;28;20048;-83
2021/03/27 02:10:29;;;;;;;24.75;15.20;;;;;;;;;;4954977;29;20046;-87
2021/03/27 02:13:09;;;;;;;29.02;15.57;;;;;;;;;;4961768;28;20055;-87
2021/03/27 02:16:06;;;;;;;25.13;15.98;;;204.80;1459.20;;;;;;4947938;29;20031;-86
2021/03/27 02:18:45;;;;;;;26.17;16.38;;;180.10;1484.80;;;;;;4940247;28;20027;-87
2021/03/27 02:21:32;;;;;;;27.10;16.92;;;180.10;1459.20;;;;;;5028324;28;20101;-88
2021/03/27 02:24:13;;;;;;;28.60;17.45;;;180.10;1459.20;;;;;;5050379;28;20598;-84
2021/03/27 02:26:53;;;;;;;25.60;16.08;;;180.10;1484.80;;;;;;5047953;28;20033;-88
2021/03/27 02:29:27;;;;;;;29.05;16.55;;;180.10;1459.20;;;;;;5047367;28;20033;-88
2021/03/27 02:32:00;;;;;;;28.92;16.20;;;180.10;1459.20;;;;;;5038221;28;20021;-89
2021/03/27 02:34:32;;;;;;;25.15;15.95;;;204.90;1459.20;;;;;;5043110;28;20029;-88
2021/03/27 02:37:22;;;;;;;25.42;16.67;;;180.10;1459.20;;;;;;5050506;28;20032;-88
2021/03/27 02:40:01;;;;;;;24.92;16.60;;;180.10;1484.80;;;;;;5038898;28;20028;-88
2021/03/27 02:42:48;;;;;;;26.23;16.98;;;180.10;1459.20;;;;;;5038349;28;20429;-82
2021/03/27 02:45:18;;;;;;;25.83;16.88;;;204.80;1459.20;;;;;;5051912;28;20040;-86
2021/03/27 02:47:58;;;;;;;28.40;16.48;;;204.80;1459.20;;;;;;5053498;28;20500;-80
2021/03/27 02:50:49;;;;;;;32.38;16.23;;;204.80;1459.20;;;;;;5053160;28;20399;-85
2021/03/27 02:53:19;;;;;;;29.48;15.55;;;204.80;1459.20;;;;;;5048173;28;20422;-88
2021/03/27 02:55:57;;;;;;;28.58;16.80;;;204.80;1459.20;;;;;;5024676;28;20029;-88
2021/03/27 02:59:11;;;;;;;24.75;15.88;;;204.90;1459.20;;;;;;5035960;28;20377;-88
2021/03/27 03:02:50;;;;;;;29.05;16.00;;;204.90;1459.20;;;;;;5002733;28;20050;-88
2021/03/27 03:05:40;;;;;;;25.13;15.88;;;204.90;1459.20;;;;;;4911042;29;20044;-86
2021/03/27 03:08:30;;;;;;;25.42;15.80;;;204.90;1459.20;;;;;;4899045;29;20083;-88
2021/03/27 03:11:25;;;;;;;23.75;14.95;;;204.90;1459.20;;;;;;4904783;29;20040;-88
2021/03/27 03:13:55;;;;;;;25.40;15.43;;;204.90;1459.20;;;;;;4910333;29;20048;-88
2021/03/27 03:16:40;;;;;;;24.88;15.27;;;204.90;1459.20;;;;;;4904714;29;20044;-75
2021/03/27 03:19:48;;;;;;;24.67;15.27;;;205.00;1459.20;;;;;;4889247;29;20040;-88
2021/03/27 03:22:24;;;;;;;28.05;16.08;;;205.10;1459.20;;;;;;4979053;23;20399;-73
2021/03/27 03:25:04;;;;;;;26.30;15.77;;;205.00;1459.20;;;;;;5031176;28;20025;-74
2021/03/27 03:27:53;;;;;;;25.88;16.13;;;205.00;1484.80;;;;;;5024901;28;20092;-74
2021/03/27 03:30:52;;;;;;;30.67;15.25;;;205.00;1459.20;;;;;;5032678;28;20375;-73
2021/03/27 03:33:41;;;;;;;24.55;15.20;;;205.00;1484.80;;;;;;5031940;28;20378;-74
2021/03/27 03:36:13;;;;;;;25.33;15.27;;;205.00;1484.80;;;;;;4974361;28;20064;-74
2021/03/27 03:39:30;;;;;;;24.50;15.40;;;205.00;1484.80;;;;;;4988768;28;20041;-73
2021/03/27 03:42:07;;;;;;;25.27;15.52;;;205.00;1484.80;;;;;;4902275;29;20036;-73
2021/03/27 03:44:54;;;;;;;27.52;15.93;;;204.90;1484.80;;;;;;4895359;29;20495;-73
2021/03/27 03:47:27;;;;;;;24.27;15.27;;;205.00;1484.80;;;;;;4914173;29;20035;-73
2021/03/27 03:50:07;;;;;;;23.30;14.80;;;205.00;1484.80;;;;;;4905434;29;20372;-75
2021/03/27 03:52:48;;;;;;;26.08;15.77;;;205.00;1484.80;;;;;;4905038;29;20044;-73
2021/03/27 03:55:26;;;;;;;26.75;16.02;;;204.90;1484.80;;;;;;4896135;29;20604;-72
2021/03/27 03:58:05;;;;;;;25.40;15.82;;;204.90;1510.40;;;;;;4907505;29;20084;-73
2021/03/27 04:00:37;;;;;;;27.60;15.98;;;180.10;1536.00;;;;;;4895856;29;20059;-74
2021/03/27 04:03:21;;;;;;;29.38;18.17;;;180.00;1536.00;;;;;;4900200;29;20036;-73
2021/03/27 04:05:54;;;;;;;24.50;16.17;;;179.70;1587.20;;;;;;4894876;29;20051;-73
2021/03/27 04:08:43;;;;;;;31.25;17.83;;;179.60;1587.20;;;;;;4910570;29;20052;-75
2021/03/27 04:11:34;;;;;;;27.08;16.75;;;179.60;1612.80;;;;;;4897902;29;20510;-76
2021/03/27 04:14:05;;;;;;;28.13;16.75;;;179.50;1612.80;;;;;;4917575;29;20078;-73
2021/03/27 04:16:33;;;;;;;30.35;17.15;;;179.50;1638.40;;;;;;4953043;28;20052;-75
2021/03/27 04:19:21;;;;;;;26.83;16.58;;;179.40;1612.80;;;;;;5038889;28;20013;-75
2021/03/27 04:22:14;;;;;;;29.02;17.27;;;179.40;1664.00;;;;;;5047471;28;20099;-75
2021/03/27 04:25:41;;;;;;;32.72;17.85;;;179.30;1664.00;;;;;;5039950;28;20036;-76
2021/03/27 04:28:41;;;;;;;30.48;16.67;;;179.20;1715.20;;;;;;4922438;29;20090;-73
2021/03/27 04:31:22;;;;;;;30.30;17.92;;;179.30;2124.80;;;;;;4931120;29;20140;-75
2021/03/27 04:33:57;;;;;;;30.92;17.58;;;154.40;1715.20;;;;;;4930806;29;20038;-74
2021/03/27 04:36:37;;;;;;;33.75;19.48;;;154.50;1740.80;;;;;;4931569;29;20027;-75
2021/03/27 04:39:19;;;;;;;33.80;18.90;;;154.50;1715.20;;;;;;4931362;28;20421;-76
2021/03/27 04:42:02;;;;;;;27.40;17.63;;;154.50;1689.60;;;;;;4930539;29;20064;-76
2021/03/27 04:44:50;;;;;;;27.23;17.63;;;154.50;1715.20;;;;;;4932707;29;20036;-78
2021/03/27 04:47:29;;;;;;;26.42;16.80;;;;;;;;;;4932251;29;20028;-79
2021/03/27 04:50:22;;;;;;;30.42;19.08;;;;;;;;;;4921163;29;20048;-79
2021/03/27 04:53:01;;;;;;;30.65;18.10;;;179.40;1689.60;;;;;;4918514;29;20043;-77
2021/03/27 04:55:51;;;;;;;28.80;18.95;;;179.30;1689.60;;;;;;4920426;29;20039;-77
2021/03/27 04:58:27;;;;;;;30.40;18.65;;;179.50;1715.20;;;;;;4917731;29;20545;-75
2021/03/27 05:01:21;;;;;;;28.25;18.92;;;179.80;1689.60;;;;;;4932100;29;20151;-73
2021/03/27 05:04:01;;;;;;;32.30;21.02;;;204.90;1638.40;;;;;;4975498;28;20047;-72
2021/03/27 05:06:38;;;;;;;45.00;27.48;;;205.20;1612.80;;;;;;5050367;28;20029;-70
2021/03/27 05:09:21;;;;;;;30.70;20.35;;;205.60;1561.60;;;;;;5051162;28;20037;-72
2021/03/27 05:11:53;;;;;;;31.98;19.85;;;230.50;1536.00;;;;;;5048662;28;20033;-71
2021/03/27 05:14:43;;;;;;;30.40;19.80;;;231.00;1484.80;;;;;;5047304;28;20021;-72
2021/03/27 05:17:13;;;;;;;31.20;19.30;;;256.00;1459.20;;;;;;5048820;28;20064;-77
2021/03/27 05:20:02;;;;;;;44.55;26.45;;;256.50;1408.00;;;;;;5039884;28;20036;-78
2021/03/27 05:22:45;;;;;;;47.53;28.10;;;281.80;1382.40;;;;;;5060515;28;20057;-80
2021/03/27 05:25:45;;;;;;;38.72;23.73;;;282.30;1382.40;;;;;;5055695;28;20035;-79
2021/03/27 05:28:26;;;;;;;39.47;27.00;;;307.70;1356.80;;;;;;5053085;28;20025;-77
2021/03/27 05:31:29;;;;;;;41.88;25.92;;;332.90;1280.00;;;;;;5051407;28;20033;-77
2021/03/27 05:34:31;;;;;;;33.03;20.27;;;333.50;1254.40;;;;;;5058607;28;20023;-79
2021/03/27 05:36:57;;;;;;;35.72;23.25;;;;;;;;;;5057379;28;20033;-73
2021/03/27 05:39:23;;;;;;;53.65;33.13;;;;;;;;;;5051874;28;20151;-73
2021/03/27 05:41:49;;;;;;;37.33;24.50;;;;;;;;;;5034258;28;20040;-74
2021/03/27 05:44:21;;;;;;;42.50;30.98;;;;;;;;;;5039885;28;20013;-74
2021/03/27 05:46:47;;;;;;;44.22;25.00;;;;;;;;;;5055999;28;20033;-75
2021/03/27 05:49:16;;;;;;;40.80;29.08;;;435.30;1100.80;;;;;;5039048;28;20045;-77
2021/03/27 05:51:48;;;;;;;51.22;33.90;;;;;;;;;;5051522;28;20025;-78
2021/03/27 05:54:19;;;;;;;44.92;30.85;;;461.00;1305.60;;;;;;5052908;28;20044;-80
2021/03/27 05:56:46;;;;;;;45.40;31.80;;;;;;;;;;5056502;28;20025;-76
2021/03/27 05:59:27;;;;;;;41.45;28.10;;;;;;;;;;5061112;28;20051;-74
2021/03/27 06:02:18;;;;;;;38.95;22.60;;;486.50;947.20;;;;;;5063236;28;20028;-78
2021/03/27 06:05:08;;;;;;;30.83;21.50;;;486.60;1075.20;;;;;;5038833;28;20095;-77
2021/03/27 06:07:40;;;;;;;38.70;20.42;;;;;;;;;;5039703;28;20021;-79
2021/03/27 06:10:28;;;;;;;34.17;20.05;;;486.60;921.60;;;;;;5058768;28;20039;-81
2021/03/27 06:12:56;;;;;;;34.65;20.80;;;486.60;921.60;;;;;;5066966;28;20040;-81
2021/03/27 06:15:42;;;;;;;45.05;20.77;;;;;;;;;;5060985;28;20100;-76
2021/03/27 06:18:23;;;;;;;32.10;20.90;;;486.70;921.60;;;;;;5059494;28;20037;-80
2021/03/27 06:21:04;;;;;;;32.42;21.83;;;486.40;921.60;;;;;;5057805;28;20032;-79
2021/03/27 06:23:48;;;;;;;31.92;19.80;;;486.70;921.60;;;;;;5056501;28;20045;-77
2021/03/27 06:26:35;;;;;;;36.05;20.65;;;487.10;947.20;;;;;;5046742;28;20036;-80
2021/03/27 06:29:12;;;;;;;42.38;21.05;;;;;;;;;;5054394;28;20029;-77
2021/03/27 06:31:53;;;;;;;43.58;20.30;;;512.80;844.80;;;;;;5045404;28;20024;-77
2021/03/27 06:34:29;;;;;;;38.92;20.42;;;;;;;;;;5038530;28;20032;-79
2021/03/27 06:36:55;;;;;;;33.47;21.13;;;;;;;;;;5032712;28;20040;-77
2021/03/27 06:39:58;;;;;;;29.80;22.73;;;538.20;819.20;;;;;;5057861;28;20052;-78
2021/03/27 06:43:07;;;;;;;33.80;23.13;;;537.70;844.80;;;;;;5035443;28;20041;-77
2021/03/27 06:46:01;;;;;;;35.47;23.10;;;537.70;844.80;;;;;;5051887;28;20033;-79
2021/03/27 06:48:41;;;;;;;29.52;22.20;;;538.20;947.20;;;;;;5064202;28;20033;-77
2021/03/27 06:51:24;;;;;;;34.00;22.25;;;;;;;;;;5063958;28;20037;-82
2021/03/27 06:54:08;;;;;;;32.58;21.48;;;;;;;;;;5071678;28;20035;-75
2021/03/27 06:57:04;;;;;;;35.60;20.45;;;588.90;768.00;;;;;;5067605;28;20067;-76
2021/03/27 07:00:07;;;;;;;37.47;20.73;;;563.90;768.00;;;;;;5056877;28;20087;-77
2021/03/27 07:02:33;;;;;;;32.75;20.77;;;;;;;;;;5064901;28;20029;-76
2021/03/27 07:04:59;;;;;;;28.13;20.35;;;;;;;;;;5066894;28;20035;-78
2021/03/27 07:07:32;;;;;;;36.33;21.77;;;;;;;;;;5057705;28;20490;-79
2021/03/27 07:10:31;;;;;;;26.98;20.05;;;;;;;;;;5046852;28;20053;-78
2021/03/27 07:13:17;;;;;;;29.58;20.38;;;;;;;;;;4956684;28;20047;-78
2021/03/27 07:15:54;;;;;;;31.33;20.20;;;;;;;;;;4961434;28;20043;-79
2021/03/27 07:18:35;;;;;;;33.83;20.02;;;;;;;;;;4953238;28;20071;-79
2021/03/27 07:21:10;;;;;;;31.20;18.73;;;;;;;;;;4952669;28;20031;-87
2021/03/27 07:23:55;;;;;;;26.70;19.95;;;;;;;;;;4952147;28;20046;-83
2021/03/27 07:26:30;;;;;;;33.80;19.73;;;;;;;;;;4951710;28;20126;-76
2021/03/27 07:29:30;;;;;;;27.65;19.05;;;;;;;;;;4950880;28;20042;-85
2021/03/27 07:32:15;;;;;;;21.35;17.48;;;;;;;;;;4954865;28;20047;-74
2021/03/27 07:34:46;;;;;;;29.17;19.20;;;;;;;;;;4954727;28;20412;-73
2021/03/27 07:37:15;;;;;;;29.50;18.75;;;;;;;;;;4950569;28;20143;-77
2021/03/27 07:39:50;;;;;;;25.17;18.05;;;;;;;;;;4952630;28;20027;-74
2021/03/27 07:42:24;;;;;;;25.50;19.13;;;;;;;;;;4949752;28;20046;-75
2021/03/27 07:45:00;;;;;;;26.67;18.20;;;;;;;;;;4951181;28;20027;-77
2021/03/27 07:47:29;;;;;;;21.35;17.65;;;;;;;;;;4950984;28;20435;-76
2021/03/27 07:50:07;;;;;;;25.85;18.05;;;;;;;;;;5048027;28;20040;-77
2021/03/27 07:52:52;;;;;;;22.90;16.75;;;;;;;;;;5050261;28;20459;-76
2021/03/27 07:55:36;;;;;;;24.13;17.95;;;;;;;;;;5048082;28;20029;-76
2021/03/27 07:58:16;;;;;;;30.30;18.55;;;;;;;;;;5051081;28;20037;-76
2021/03/27 08:00:43;;;;;;;26.58;17.77;;;;;;;;;;5049892;28;20152;-77
2021/03/27 08:03:18;;;;;;;21.95;16.58;;;;;;;;;;5036131;28;20469;-86
2021/03/27 08:05:58;;;;;;;20.00;15.93;;;;;;;;;;5029205;28;20036;-78
2021/03/27 08:08:27;;;;;;;20.60;15.88;;;;;;;;;;5050654;28;20017;-77
2021/03/27 08:11:13;;;;;;;23.40;16.73;;;;;;;;;;5046124;28;20033;-84
2021/03/27 08:13:51;;;;;;;23.85;16.20;;;;;;;;;;5042314;28;20033;-85
2021/03/27 08:16:17;;;;;;;23.65;15.73;;;;;;;;;;5043307;28;20028;-76
2021/03/27 08:19:00;;;;;;;20.13;14.77;;;;;;;;;;5034007;28;20124;-77
2021/03/27 08:21:39;;;;;;;20.30;14.55;;;;;;;;;;5042158;28;20029;-77
2021/03/27 08:24:05;;;;;;;25.42;15.80;;;;;;;;;;5051166;28;20056;-77
2021/03/27 08:26:38;;;;;;;21.70;14.85;;;;;;;;;;5034086;28;20530;-77
2021/03/27 08:29:44;;;;;;;26.23;17.75;;;563.60;768.00;;;;;;5032253;28;20110;-76
2021/03/27 08:32:10;;;;;;;25.10;15.65;;;563.60;768.00;;;;;;5045234;28;20098;-76
2021/03/27 08:34:59;;;;;;;25.77;15.68;;;;;;;;;;5052813;28;20021;-76
2021/03/27 08:37:31;;;;;;;30.92;20.02;;;;;;;;;;4943846;29;20046;-80
2021/03/27 08:40:23;;;;;;;22.25;15.10;;;538.00;768.00;;;;;;4956065;28;20051;-77
2021/03/27 08:43:25;;;;;;;25.48;16.27;;;512.90;768.00;;;;;;4949585;28;20039;-75
2021/03/27 08:46:03;;;;;;;29.65;16.58;;;512.50;793.60;;;;;;4948329;29;20027;-74
2021/03/27 08:48:39;;;;;;;25.70;14.55;;;512.40;793.60;;;;;;4940843;28;20506;-76
2021/03/27 08:51:27;;;;;;;23.08;14.75;;;512.20;819.20;;;;;;4950592;28;20051;-74
2021/03/27 08:54:44;;;;;;;20.63;14.05;;;512.10;793.60;;;;;;4950374;29;20066;-76
2021/03/27 08:57:53;;;;;;;20.98;14.00;;;512.00;819.20;;;;;;4951301;29;20034;-73
2021/03/27 09:00:30;;;;;;;51.97;14.57;;;487.30;793.60;;;;;;4940827;29;20644;-76
2021/03/27 09:02:59;;;;;;;23.17;14.60;;;;;;;;;;4947826;28;20043;-73
2021/03/27 09:05:32;;;;;;;22.13;14.45;;;512.00;793.60;;;;;;4957395;29;20075;-74
2021/03/27 09:08:17;;;;;;;18.85;13.13;;;487.00;844.80;;;;;;4956696;29;20047;-74
2021/03/27 09:10:48;;;;;;;25.30;14.35;;;486.70;819.20;;;;;;4940951;29;20043;-77
2021/03/27 09:13:20;;;;;;;22.35;14.25;;;;;;;;;;4957481;28;20031;-75
2021/03/27 09:16:23;;;;;;;21.85;13.90;;;486.70;844.80;;;;;;5053997;28;20033;-75
2021/03/27 09:19:30;;;;;;;21.27;14.20;;;486.50;870.40;;;;;;5055922;28;20082;-77
2021/03/27 09:22:05;;;;;;;23.80;13.77;;;486.40;870.40;;;;;;4987906;28;20105;-75
2021/03/27 09:24:41;;;;;;;21.88;13.45;;;461.70;921.60;;;;;;4976090;28;20039;-76
2021/03/27 09:27:33;;;;;;;20.65;12.98;;;461.70;921.60;;;;;;4970990;28;20074;-75
2021/03/27 09:30:07;;;;;;;19.73;12.88;;;461.50;921.60;;;;;;4974392;28;20447;-74
2021/03/27 09:33:16;;;;;;;17.60;12.07;;;461.40;947.20;;;;;;4972331;28;20027;-75
2021/03/27 09:35:57;;;;;;;19.55;11.57;;;461.40;921.60;;;;;;4897976;29;20044;-75
2021/03/27 09:38:28;;;;;;;25.00;12.25;;;461.30;947.20;;;;;;4908321;29;20045;-80
2021/03/27 09:40:54;;;;;;;16.85;11.10;;;461.40;921.60;;;;;;4903840;29;20041;-75
2021/03/27 09:43:35;;;;;;;21.38;11.43;;;461.40;947.20;;;;;;4895802;29;20096;-74
2021/03/27 09:46:07;;;;;;;20.15;11.10;;;461.40;972.80;;;;;;4896648;29;20060;-75
2021/03/27 09:48:53;;;;;;;19.42;11.25;;;461.30;921.60;;;;;;4897291;29;20017;-74
2021/03/27 09:52:03;;;;;;;16.75;10.43;;;461.40;921.60;;;;;;4898057;29;20145;-73
2021/03/27 09:54:48;;;;;;;29.10;14.38;;;461.40;947.20;;;;;;4823567;29;20035;-80
2021/03/27 09:58:04;;;;;;;26.67;14.55;;;461.40;947.20;;;;;;4844620;29;20040;-72
2021/03/27 10:00:48;;;;;;;19.65;13.07;;;461.40;972.80;;;;;;4807826;29;20047;-74
2021/03/27 10:03:28;;;;;;;29.42;10.60;;;461.30;972.80;;;;;;4806604;29;20675;-74
2021/03/27 10:06:24;;;;;;;14.90;9.77;;;461.30;947.20;;;;;;4811957;29;20046;-74
2021/03/27 10:09:10;;;;;;;18.73;9.85;;;461.40;947.20;;;;;;4811747;29;20401;-74
2021/03/27 10:11:39;;;;;;;14.20;8.10;;;461.40;998.40;;;;;;4810040;29;20058;-74
2021/03/27 10:14:26;;;;;;;11.70;7.55;;;461.40;972.80;;;;;;4816088;29;20042;-74
2021/03/27 10:17:22;;;;;;;14.07;7.50;;;461.30;972.80;;;;;;4835622;29;20038;-74
2021/03/27 10:19:52;;;;;;;12.27;7.65;;;461.40;947.20;;;;;;4824854;29;20433;-74
2021/03/27 10:22:39;;;;;;;11.20;6.15;;;461.40;1024.00;;;;;;4824866;29;20451;-75
2021/03/27 10:25:12;;;;;;;12.68;6.60;;;461.30;998.40;;;;;;4832104;29;20153;-74
2021/03/27 10:27:50;;;;;;;16.08;7.00;;;461.40;972.80;;;;;;4850212;29;20032;-75
2021/03/27 10:31:03;;;;;;;12.90;6.35;;;461.40;972.80;;;;;;4915686;29;20100;-75
2021/03/27 10:33:58;;;;;;;16.33;6.45;;;461.40;947.20;;;;;;4907667;29;20036;-74
2021/03/27 10:36:42;;;;;;;11.73;7.07;;;461.40;947.20;;;;;;4915292;29;20123;-74
2021/03/27 10:39:28;;;;;;;10.85;6.45;;;461.30;947.20;;;;;;4970592;28;20408;-74
2021/03/27 10:42:42;;;;;;;18.08;6.28;;;461.20;947.20;;;;;;4962944;28;20076;-77
2021/03/27 10:45:28;;;;;;;23.13;7.18;;;461.40;972.80;;;;;;4940509;28;20040;-75
2021/03/27 10:48:03;;;;;;;10.00;6.38;;;461.40;998.40;;;;;;4978471;28;20037;-75
2021/03/27 10:50:47;;;;;;;12.10;6.90;;;461.50;972.80;;;;;;5054117;28;20032;-74
2021/03/27 10:53:38;;;;;;;12.73;6.57;;;461.60;947.20;;;;;;5052749;28;20025;-75
2021/03/27 10:56:21;;;;;;;12.80;7.07;;;461.70;998.40;;;;;;5053652;28;20024;-75
2021/03/27 10:59:25;;;;;;;14.30;6.68;;;461.70;972.80;;;;;;5051468;28;20036;-74
2021/03/27 11:02:09;;;;;;;16.02;7.28;;;461.70;947.20;;;;;;5050809;28;20040;-76
2021/03/27 11:04:53;;;;;;;19.55;7.50;;;461.70;921.60;;;;;;5051392;28;20498;-73
2021/03/27 11:07:48;;;;;;;10.90;7.18;;;461.60;947.20;;;;;;5051899;28;20025;-75
2021/03/27 11:10:29;;;;;;;14.13;7.15;;;461.70;972.80;;;;;;5035289;28;20036;-76
2021/03/27 11:13:26;;;;;;;12.10;6.97;;;486.40;972.80;;;;;;5050647;28;20092;-74
2021/03/27 11:16:14;;;;;;;14.45;7.40;;;486.40;921.60;;;;;;5036974;28;20024;-76
2021/03/27 11:19:08;;;;;;;16.45;7.50;;;486.40;921.60;;;;;;5028634;28;20021;-76
2021/03/27 11:22:00;;;;;;;14.10;8.15;;;486.60;947.20;;;;;;5051776;28;20082;-76
2021/03/27 11:25:16;;;;;;;15.25;7.90;;;486.80;947.20;;;;;;5034287;28;20033;-74
2021/03/27 11:28:07;;;;;;;10.70;6.93;;;487.00;921.60;;;;;;4932770;29;20028;-75
2021/03/27 11:30:48;;;;;;;12.80;8.68;;;487.20;921.60;;;;;;4930014;29;20054;-74
2021/03/27 11:33:31;;;;;;;12.05;7.90;;;512.00;896.00;;;;;;4933552;29;20027;-75
2021/03/27 11:36:20;;;;;;;11.82;6.80;;;512.10;896.00;;;;;;4933674;29;20118;-75
2021/03/27 11:39:21;;;;;;;13.38;7.68;;;512.30;896.00;;;;;;4932686;29;20470;-77
2021/03/27 11:42:07;;;;;;;15.30;7.40;;;512.30;896.00;;;;;;4923338;29;20040;-74
2021/03/27 11:44:42;;;;;;;13.27;8.95;;;512.40;896.00;;;;;;4931171;29;20035;-74
2021/03/27 11:47:17;;;;;;;14.70;8.15;;;512.30;870.40;;;;;;4933093;29;20040;-74
2021/03/27 11:50:05;;;;;;;15.32;9.40;;;512.40;896.00;;;;;;4932796;29;20043;-74
2021/03/27 11:53:02;;;;;;;16.25;9.40;;;512.30;870.40;;;;;;4933277;29;20040;-74
2021/03/27 11:55:54;;;;;;;11.63;7.50;;;512.40;870.40;;;;;;4935925;29;20039;-75
2021/03/27 11:58:31;;;;;;;19.13;11.90;;;512.30;870.40;;;;;;4933318;29;20039;-75
2021/03/27 12:01:12;;;;;;;13.85;9.70;;;512.20;896.00;;;;;;4931506;29;20107;-75
2021/03/27 12:03:38;;;;;;;17.80;12.23;;;512.20;870.40;;;;;;5022245;28;20497;-75
2021/03/27 12:06:41;;;;;;;20.13;11.48;;;512.20;870.40;;;;;;5037733;28;20033;-75
2021/03/27 12:09:37;;;;;;;22.00;13.52;;;512.20;870.40;;;;;;5052231;28;20447;-75
2021/03/27 12:12:08;;;;;;;16.33;10.63;;;512.20;870.40;;;;;;5047997;28;20032;-76
2021/03/27 12:15:02;;;;;;;22.88;14.02;;;512.10;896.00;;;;;;5052415;28;20098;-77
2021/03/27 12:17:36;;;;;;;;;;;487.30;921.60;;;;;;5048499;28;20104;-76
2021/03/27 12:20:27;;;;;;;44.67;20.48;;;487.00;921.60;;;;;;5050922;28;20353;-75
2021/03/27 12:23:11;;;;;;;21.40;12.52;;;486.70;947.20;;;;;;5049600;28;20501;-76
2021/03/27 12:25:54;;;;;;;16.88;10.65;;;486.80;947.20;;;;;;5051395;28;20021;-77
2021/03/27 12:28:28;;;;;;;14.75;9.57;;;486.90;998.40;;;;;;5035785;28;20433;-76
2021/03/27 12:30:57;;;;;;;15.75;9.35;;;487.00;947.20;;;;;;5051572;28;20041;-76
2021/03/27 12:33:44;;;;;;;12.38;7.03;;;487.20;921.60;;;;;;5050585;28;20075;-75
2021/03/27 12:36:39;;;;;;;13.77;7.63;;;487.30;921.60;;;;;;5042544;28;20029;-76
2021/03/27 12:39:27;;;;;;;10.98;6.45;;;487.30;921.60;;;;;;4973607;28;20050;-75
2021/03/27 12:42:05;;;;;;;13.68;7.57;;;512.00;896.00;;;;;;4974907;28;20105;-76
2021/03/27 12:44:42;;;;;;;11.25;6.80;;;512.00;921.60;;;;;;4973911;28;20038;-76
2021/03/27 12:47:41;;;;;;;11.50;7.15;;;512.00;896.00;;;;;;4976737;28;20031;-76
2021/03/27 12:50:12;;;;;;;12.50;7.00;;;512.00;896.00;;;;;;4975448;28;20096;-76
2021/03/27 12:53:01;;;;;;;10.90;6.57;;;487.30;896.00;;;;;;4979697;28;20026;-75
2021/03/27 12:55:52;;;;;;;12.88;8.07;;;487.20;896.00;;;;;;4922494;29;20521;-75
2021/03/27 12:58:45;;;;;;;13.80;8.13;;;487.10;921.60;;;;;;4920507;29;20039;-76
2021/03/27 13:01:42;;;;;;;13.57;9.50;;;487.10;921.60;;;;;;4922176;29;20568;-76
2021/03/27 13:04:22;;;;;;;36.95;22.33;;;487.10;921.60;;;;;;4897464;29;20415;-75
2021/03/27 13:07:11;;;;;;;11.98;8.55;;;487.00;921.60;;;;;;4897757;29;20044;-78
2021/03/27 13:10:04;;;;;;;13.55;7.20;;;486.90;947.20;;;;;;4906194;29;20103;-73
2021/03/27 13:12:39;;;;;;;8.13;5.47;;;486.90;947.20;;;;;;4900877;29;20029;-76
2021/03/27 13:15:41;;;;;;;10.32;5.43;;;486.80;921.60;;;;;;4903267;29;20037;-78
2021/03/27 13:18:34;;;;;;;10.57;5.45;;;486.90;947.20;;;;;;4896464;29;20028;-75
2021/03/27 13:21:49;;;;;;;7.13;4.97;;;486.90;947.20;;;;;;4889078;29;20069;-73
2021/03/27 13:24:15;;;;;;;12.55;5.63;;;486.90;921.60;;;;;;4895021;29;20069;-75
2021/03/27 13:26:42;;;;;;;13.02;6.00;;;486.80;947.20;;;;;;4912120;29;20180;-74
2021/03/27 13:29:34;;;;;;;12.18;6.70;;;486.90;947.20;;;;;;4908172;29;20033;-76
2021/03/27 13:32:15;;;;;;;11.98;6.13;;;486.90;972.80;;;;;;4927340;29;20039;-74
2021/03/27 13:35:02;;;;;;;12.00;6.97;;;486.90;972.80;;;;;;4946279;29;20592;-76
2021/03/27 13:37:35;;;;;;;14.68;6.60;;;486.80;972.80;;;;;;4935621;29;20371;-74
2021/03/27 13:40:17;;;;;;;;;;;486.80;998.40;;;;;;4943132;28;20035;-74
2021/03/27 13:42:55;;;;;;;10.85;6.60;;;486.70;972.80;;;;;;4992538;28;19980;-75
2021/03/27 13:45:27;;;;;;;11.10;6.90;;;486.60;998.40;;;;;;4992576;28;20030;-74
2021/03/27 13:48:13;;;;;;;9.35;6.78;;;486.60;998.40;;;;;;4993013;28;20523;-75